createdAt,value
2019-02-15T13:32:18.700Z,19.00
2019-02-15T13:34:48.641Z,18.70
2019-02-15T13:37:21.981Z,18.50
2019-02-15T13:39:55.207Z,18.20
2019-02-15T13:42:25.214Z,18.50
2019-02-15T13:44:56.807Z,18.60
2019-02-15T13:50:40.775Z,17.80
2019-02-15T13:53:10.251Z,18.10
2019-02-15T13:55:46.526Z,18.10
2019-02-15T13:58:26.769Z,18.00
2019-02-15T14:00:55.933Z,18.10
2019-02-15T14:03:41.139Z,17.50
2019-02-15T14:06:13.375Z,17.30
2019-02-15T14:09:05.360Z,16.80
2019-02-15T14:11:41.339Z,16.20
2019-02-15T14:14:10.394Z,15.60
2019-02-15T14:16:41.015Z,15.40
2019-02-15T14:19:10.090Z,15.30
2019-02-15T14:21:44.299Z,15.00
2019-02-15T14:24:08.511Z,14.90
2019-02-15T14:26:37.619Z,14.90
2019-02-15T14:29:06.701Z,14.90
2019-02-15T14:31:35.905Z,14.70
2019-02-15T14:34:05.201Z,14.70
2019-02-15T14:36:34.518Z,14.80
2019-02-15T14:39:04.722Z,14.70
2019-02-15T14:41:33.894Z,14.70
2019-02-15T14:44:03.022Z,14.50
2019-02-15T14:46:32.123Z,14.40
2019-02-15T14:49:01.199Z,14.30
2019-02-15T14:51:30.309Z,14.30
2019-02-15T14:53:59.385Z,14.30
2019-02-15T14:56:29.486Z,14.30
2019-02-15T14:58:59.662Z,14.20
2019-02-15T15:01:28.981Z,14.20
2019-02-15T15:03:58.444Z,14.20
2019-02-15T15:06:28.069Z,14.20
2019-02-15T15:08:57.209Z,14.20
2019-02-15T15:11:26.367Z,14.10
2019-02-15T15:13:55.489Z,13.90
2019-02-15T15:16:24.599Z,13.90
2019-02-15T15:18:53.941Z,13.80
2019-02-15T15:21:23.024Z,13.80
2019-02-15T15:23:52.864Z,13.80
2019-02-15T15:26:21.965Z,13.70
2019-02-15T15:28:51.183Z,13.60
2019-02-15T15:31:21.844Z,13.50
2019-02-15T15:33:49.992Z,13.50
2019-02-15T15:36:19.156Z,13.40
2019-02-15T15:38:48.383Z,13.40
2019-02-15T15:41:17.574Z,13.30
2019-02-15T15:43:46.831Z,13.20
2019-02-15T15:46:16.095Z,13.20
2019-02-15T15:48:45.798Z,13.10
2019-02-15T15:51:17.639Z,13.00
2019-02-15T15:53:48.259Z,13.00
2019-02-15T15:56:18.551Z,12.90
2019-02-15T15:58:48.415Z,12.90
2019-02-15T16:01:24.789Z,12.80
2019-02-15T16:04:00.095Z,12.80
2019-02-15T16:06:31.177Z,12.70
2019-02-15T16:09:06.601Z,12.60
2019-02-15T16:11:43.020Z,12.50
2019-02-15T16:14:18.566Z,12.50
2019-02-15T16:16:56.478Z,12.40
2019-02-15T16:19:40.123Z,12.30
2019-02-15T16:22:07.312Z,12.20
2019-02-15T16:27:38.943Z,12.10
2019-02-15T16:30:34.017Z,12.00
2019-02-15T16:33:10.423Z,11.90
2019-02-15T16:35:38.487Z,11.80
2019-02-15T16:38:11.502Z,11.60
2019-02-15T16:40:43.475Z,11.60
2019-02-15T16:43:26.643Z,11.50
2019-02-15T16:46:05.990Z,11.30
2019-02-15T16:48:41.932Z,11.20
2019-02-15T16:51:05.584Z,11.10
2019-02-15T16:53:35.685Z,10.90
2019-02-15T16:56:05.508Z,10.80
2019-02-15T16:58:37.910Z,10.60
2019-02-15T17:01:07.264Z,10.50
2019-02-15T17:03:36.444Z,10.50
2019-02-15T17:06:05.581Z,10.50
2019-02-15T17:08:35.128Z,10.40
2019-02-15T17:11:04.194Z,10.30
2019-02-15T17:13:34.754Z,10.20
2019-02-15T17:16:02.619Z,10.10
2019-02-15T17:18:31.789Z,10.10
2019-02-15T17:21:03.184Z,10.00
2019-02-15T17:23:32.483Z,10.00
2019-02-15T17:26:01.675Z,10.00
2019-02-15T17:28:31.421Z,10.00
2019-02-15T17:31:00.613Z,10.00
2019-02-15T17:33:31.000Z,9.90
2019-02-15T17:36:00.733Z,9.90
2019-02-15T17:38:29.805Z,9.80
2019-02-15T17:40:58.883Z,9.70
2019-02-15T17:43:30.882Z,9.60
2019-02-15T17:46:18.993Z,9.60
2019-02-15T17:49:00.594Z,9.60
2019-02-15T17:51:39.773Z,9.60
2019-02-15T17:54:22.601Z,9.60
2019-02-15T17:56:55.521Z,9.70
2019-02-15T17:59:26.635Z,9.70
2019-02-15T18:01:55.829Z,9.70
2019-02-15T18:04:25.973Z,9.70
2019-02-15T18:06:55.088Z,9.80
2019-02-15T18:09:26.079Z,9.80
2019-02-15T18:11:55.675Z,9.80
2019-02-15T18:14:27.011Z,9.70
2019-02-15T18:16:59.102Z,9.70
2019-02-15T18:19:33.310Z,9.80
2019-02-15T18:22:08.044Z,9.80
2019-02-15T18:24:41.956Z,9.80
2019-02-15T18:33:38.971Z,9.70
2019-02-15T18:36:16.699Z,9.60
2019-02-15T18:39:02.049Z,9.50
2019-02-15T18:50:16.120Z,9.50
2019-02-15T18:52:46.403Z,9.50
2019-02-15T18:55:15.867Z,9.50
2019-02-15T18:57:45.077Z,9.50
2019-02-15T19:00:14.793Z,9.50
2019-02-15T19:02:47.069Z,9.40
2019-02-15T19:05:16.447Z,9.40
2019-02-15T19:07:45.779Z,9.40
2019-02-15T19:10:18.056Z,9.40
2019-02-15T19:12:47.350Z,9.30
2019-02-15T19:15:16.577Z,9.20
2019-02-15T19:17:45.822Z,9.10
2019-02-15T19:20:15.201Z,9.10
2019-02-15T19:22:44.616Z,9.00
2019-02-15T19:25:13.856Z,9.00
2019-02-15T19:27:43.145Z,8.90
2019-02-15T19:30:16.785Z,8.80
2019-02-15T19:32:46.258Z,8.80
2019-02-15T19:35:15.507Z,8.80
2019-02-15T19:37:45.621Z,8.80
2019-02-15T19:40:14.862Z,8.80
2019-02-15T19:42:45.697Z,8.80
2019-02-15T19:45:15.060Z,8.70
2019-02-15T19:47:44.359Z,8.70
2019-02-15T19:50:15.622Z,8.70
2019-02-15T19:52:45.402Z,8.70
2019-02-15T19:55:14.759Z,8.60
2019-02-15T19:57:43.815Z,8.60
2019-02-15T20:00:15.084Z,8.50
2019-02-15T20:02:44.179Z,8.50
2019-02-15T20:05:13.740Z,8.50
2019-02-15T20:07:42.925Z,8.60
2019-02-15T20:10:15.695Z,8.50
2019-02-15T20:12:48.303Z,8.50
2019-02-15T20:15:17.980Z,8.40
2019-02-15T20:17:48.931Z,8.30
2019-02-15T20:20:20.055Z,8.30
2019-02-15T20:22:49.674Z,8.30
2019-02-15T20:25:19.767Z,8.30
2019-02-15T20:27:48.967Z,8.30
2019-02-15T20:30:20.443Z,8.30
2019-02-15T20:32:51.304Z,8.20
2019-02-15T20:35:22.201Z,8.20
2019-02-15T20:37:52.466Z,8.20
2019-02-15T20:40:21.882Z,8.20
2019-02-15T20:42:51.320Z,8.20
2019-02-15T20:45:21.362Z,8.20
2019-02-15T20:47:50.549Z,8.10
2019-02-15T20:50:19.802Z,8.10
2019-02-15T20:52:48.977Z,8.10
2019-02-15T20:55:18.244Z,8.10
2019-02-15T20:57:47.467Z,8.00
2019-02-15T21:00:19.058Z,8.00
2019-02-15T21:02:48.272Z,8.00
2019-02-15T21:05:17.289Z,7.90
2019-02-15T21:07:46.668Z,7.90
2019-02-15T21:10:16.129Z,7.90
2019-02-15T21:12:45.416Z,7.80
2019-02-15T21:15:14.410Z,7.80
2019-02-15T21:17:43.494Z,7.80
2019-02-15T21:20:12.533Z,7.80
2019-02-15T21:22:41.799Z,7.80
2019-02-15T21:25:11.827Z,7.80
2019-02-15T21:27:40.940Z,7.80
2019-02-15T21:30:12.377Z,7.80
2019-02-15T21:32:41.929Z,7.80
2019-02-15T21:35:11.047Z,7.80
2019-02-15T21:37:40.188Z,7.80
2019-02-15T21:40:11.007Z,7.80
2019-02-15T21:42:40.188Z,7.80
2019-02-15T21:45:10.623Z,7.70
2019-02-15T21:47:39.871Z,7.80
2019-02-15T21:50:16.709Z,7.80
2019-02-15T21:52:44.216Z,7.70
2019-02-15T21:55:08.103Z,7.70
2019-02-15T21:57:37.216Z,7.70
2019-02-15T22:00:10.688Z,7.70
2019-02-15T22:02:39.921Z,7.70
2019-02-15T22:05:09.240Z,7.60
2019-02-15T22:07:38.507Z,7.60
2019-02-15T22:10:08.834Z,7.60
2019-02-15T22:12:40.590Z,7.50
2019-02-15T22:15:12.670Z,7.50
2019-02-15T22:17:41.850Z,7.50
2019-02-15T22:20:13.302Z,7.50
2019-02-15T22:22:42.466Z,7.40
2019-02-15T22:25:14.382Z,7.40
2019-02-15T22:27:44.096Z,7.30
2019-02-15T22:30:14.492Z,7.30
2019-02-15T22:32:43.761Z,7.30
2019-02-15T22:35:12.756Z,7.30
2019-02-15T22:37:41.824Z,7.30
2019-02-15T22:40:22.498Z,7.20
2019-02-15T22:42:51.499Z,7.20
2019-02-15T22:45:20.606Z,7.10
2019-02-15T22:47:49.710Z,7.10
2019-02-15T22:50:18.719Z,7.10
2019-02-15T22:52:48.060Z,7.00
2019-02-15T22:55:16.908Z,7.00
2019-02-15T22:57:45.990Z,7.00
2019-02-15T23:00:21.522Z,6.90
2019-02-15T23:02:51.367Z,6.90
2019-02-15T23:05:20.492Z,6.90
2019-02-15T23:07:49.476Z,6.90
2019-02-15T23:10:18.628Z,6.80
2019-02-15T23:12:47.732Z,6.80
2019-02-15T23:15:17.003Z,6.80
2019-02-15T23:17:46.074Z,6.80
2019-02-15T23:20:15.341Z,6.70
2019-02-15T23:22:46.048Z,6.70
2019-02-15T23:25:15.257Z,6.60
2019-02-15T23:27:44.292Z,6.60
2019-02-15T23:30:13.439Z,6.50
2019-02-15T23:32:42.482Z,6.50
2019-02-15T23:35:11.556Z,6.40
2019-02-15T23:37:41.220Z,6.30
2019-02-15T23:40:10.268Z,6.40
2019-02-15T23:42:39.250Z,6.30
2019-02-15T23:45:08.291Z,6.20
2019-02-15T23:47:37.333Z,6.10
2019-02-15T23:50:06.948Z,6.10
2019-02-15T23:52:36.015Z,6.10
2019-02-15T23:55:05.043Z,6.20
2019-02-15T23:57:34.154Z,6.30
